sensor_id;sensor_type;location;lat;lon;timestamp;temperature;humidity
75022;SHT31;63583;49.976;20.182;2022-11-21T00:00:30;0.48;91.86
75022;SHT31;63583;49.976;20.182;2022-11-21T00:03:02;0.36;90.39
75022;SHT31;63583;49.976;20.182;2022-11-21T00:05:29;0.32;90.31
75022;SHT31;63583;49.976;20.182;2022-11-21T00:07:55;0.25;89.67
75022;SHT31;63583;49.976;20.182;2022-11-21T00:10:22;0.12;89.49
75022;SHT31;63583;49.976;20.182;2022-11-21T00:12:53;-0.09;89.96
75022;SHT31;63583;49.976;20.182;2022-11-21T00:15:19;-0.26;91.00
75022;SHT31;63583;49.976;20.182;2022-11-21T00:17:45;-0.27;91.78
75022;SHT31;63583;49.976;20.182;2022-11-21T00:20:11;-0.37;91.66
75022;SHT31;63583;49.976;20.182;2022-11-21T00:22:37;-0.61;91.82
75022;SHT31;63583;49.976;20.182;2022-11-21T00:25:03;-0.65;92.55
75022;SHT31;63583;49.976;20.182;2022-11-21T00:27:29;-0.54;93.26
75022;SHT31;63583;49.976;20.182;2022-11-21T00:29:55;-0.64;93.94
75022;SHT31;63583;49.976;20.182;2022-11-21T00:32:20;-0.60;94.71
75022;SHT31;63583;49.976;20.182;2022-11-21T00:34:46;-0.62;94.83
75022;SHT31;63583;49.976;20.182;2022-11-21T00:37:12;-0.56;95.03
75022;SHT31;63583;49.976;20.182;2022-11-21T00:39:37;-0.50;95.08
75022;SHT31;63583;49.976;20.182;2022-11-21T00:42:03;-0.49;94.39
75022;SHT31;63583;49.976;20.182;2022-11-21T00:44:29;-0.51;94.79
75022;SHT31;63583;49.976;20.182;2022-11-21T00:46:54;-0.54;95.08
75022;SHT31;63583;49.976;20.182;2022-11-21T00:49:21;-0.45;95.49
75022;SHT31;63583;49.976;20.182;2022-11-21T00:51:47;-0.47;95.66
75022;SHT31;63583;49.976;20.182;2022-11-21T00:54:13;-0.43;95.84
75022;SHT31;63583;49.976;20.182;2022-11-21T00:56:38;-0.27;95.78
75022;SHT31;63583;49.976;20.182;2022-11-21T00:59:04;-0.24;95.38
75022;SHT31;63583;49.976;20.182;2022-11-21T01:01:30;-0.26;94.41
75022;SHT31;63583;49.976;20.182;2022-11-21T01:03:59;-0.23;92.62
75022;SHT31;63583;49.976;20.182;2022-11-21T01:06:24;-0.43;91.98
75022;SHT31;63583;49.976;20.182;2022-11-21T01:08:50;-0.40;90.89
75022;SHT31;63583;49.976;20.182;2022-11-21T01:11:18;-0.70;91.03
75022;SHT31;63583;49.976;20.182;2022-11-21T01:13:46;-1.15;93.29
75022;SHT31;63583;49.976;20.182;2022-11-21T01:16:17;-1.10;93.81
75022;SHT31;63583;49.976;20.182;2022-11-21T01:18:43;-1.10;94.30
75022;SHT31;63583;49.976;20.182;2022-11-21T01:21:17;-1.02;94.87
75022;SHT31;63583;49.976;20.182;2022-11-21T01:23:43;-0.96;95.56
75022;SHT31;63583;49.976;20.182;2022-11-21T01:26:18;-0.95;95.72
75022;SHT31;63583;49.976;20.182;2022-11-21T01:28:44;-0.85;95.86
75022;SHT31;63583;49.976;20.182;2022-11-21T01:31:13;-0.72;96.04
75022;SHT31;63583;49.976;20.182;2022-11-21T01:33:39;-0.60;95.65
75022;SHT31;63583;49.976;20.182;2022-11-21T01:36:32;-0.56;94.94
75022;SHT31;63583;49.976;20.182;2022-11-21T01:39:00;-0.54;94.13
75022;SHT31;63583;49.976;20.182;2022-11-21T01:41:32;-0.74;93.10
75022;SHT31;63583;49.976;20.182;2022-11-21T01:43:59;-0.78;92.77
75022;SHT31;63583;49.976;20.182;2022-11-21T01:46:25;-0.91;92.31
75022;SHT31;63583;49.976;20.182;2022-11-21T01:51:30;-1.12;94.14
75022;SHT31;63583;49.976;20.182;2022-11-21T01:54:21;-0.96;94.01
75022;SHT31;63583;49.976;20.182;2022-11-21T01:56:59;-1.00;93.94
75022;SHT31;63583;49.976;20.182;2022-11-21T01:59:30;-0.98;94.12
75022;SHT31;63583;49.976;20.182;2022-11-21T02:01:58;-1.05;93.58
75022;SHT31;63583;49.976;20.182;2022-11-21T02:04:27;-1.20;92.77
75022;SHT31;63583;49.976;20.182;2022-11-21T02:06:55;-1.10;92.62
75022;SHT31;63583;49.976;20.182;2022-11-21T02:09:21;-1.27;92.47
75022;SHT31;63583;49.976;20.182;2022-11-21T02:11:51;-1.43;92.50
75022;SHT31;63583;49.976;20.182;2022-11-21T02:14:19;-1.57;94.13
75022;SHT31;63583;49.976;20.182;2022-11-21T02:16:45;-1.39;93.74
75022;SHT31;63583;49.976;20.182;2022-11-21T02:19:19;-1.43;93.55
75022;SHT31;63583;49.976;20.182;2022-11-21T02:21:57;-1.50;93.95
75022;SHT31;63583;49.976;20.182;2022-11-21T02:27:19;-1.71;94.75
75022;SHT31;63583;49.976;20.182;2022-11-21T02:29:45;-1.77;95.53
75022;SHT31;63583;49.976;20.182;2022-11-21T02:32:23;-1.79;96.07
75022;SHT31;63583;49.976;20.182;2022-11-21T02:34:49;-1.78;96.28
75022;SHT31;63583;49.976;20.182;2022-11-21T02:37:15;-1.63;96.62
75022;SHT31;63583;49.976;20.182;2022-11-21T02:39:44;-1.57;96.64
75022;SHT31;63583;49.976;20.182;2022-11-21T02:42:17;-1.53;96.83
75022;SHT31;63583;49.976;20.182;2022-11-21T02:47:11;-1.57;96.92
75022;SHT31;63583;49.976;20.182;2022-11-21T02:49:43;-1.56;97.21
75022;SHT31;63583;49.976;20.182;2022-11-21T02:52:12;-1.53;97.32
75022;SHT31;63583;49.976;20.182;2022-11-21T02:54:38;-1.48;97.62
75022;SHT31;63583;49.976;20.182;2022-11-21T02:57:04;-1.43;97.84
75022;SHT31;63583;49.976;20.182;2022-11-21T02:59:30;-1.36;98.00
75022;SHT31;63583;49.976;20.182;2022-11-21T03:01:55;-1.23;98.59
75022;SHT31;63583;49.976;20.182;2022-11-21T03:04:25;-1.20;98.37
75022;SHT31;63583;49.976;20.182;2022-11-21T03:06:51;-1.09;98.89
75022;SHT31;63583;49.976;20.182;2022-11-21T03:09:17;-1.06;98.65
75022;SHT31;63583;49.976;20.182;2022-11-21T03:11:42;-0.93;98.49
75022;SHT31;63583;49.976;20.182;2022-11-21T03:14:08;-0.91;98.33
75022;SHT31;63583;49.976;20.182;2022-11-21T03:16:34;-0.87;98.50
75022;SHT31;63583;49.976;20.182;2022-11-21T03:19:00;-0.84;98.36
75022;SHT31;63583;49.976;20.182;2022-11-21T03:21:26;-0.79;98.30
75022;SHT31;63583;49.976;20.182;2022-11-21T03:23:52;-0.78;98.14
75022;SHT31;63583;49.976;20.182;2022-11-21T03:26:17;-0.78;98.26
75022;SHT31;63583;49.976;20.182;2022-11-21T03:28:43;-0.77;98.26
75022;SHT31;63583;49.976;20.182;2022-11-21T03:31:09;-0.72;98.00
75022;SHT31;63583;49.976;20.182;2022-11-21T03:33:34;-0.75;97.98
75022;SHT31;63583;49.976;20.182;2022-11-21T03:36:00;-0.74;97.98
75022;SHT31;63583;49.976;20.182;2022-11-21T03:38:26;-0.56;95.19
75022;SHT31;63583;49.976;20.182;2022-11-21T03:40:52;-0.68;90.97
75022;SHT31;63583;49.976;20.182;2022-11-21T03:43:17;-0.88;87.83
75022;SHT31;63583;49.976;20.182;2022-11-21T03:45:46;-1.06;88.77
75022;SHT31;63583;49.976;20.182;2022-11-21T03:48:14;-1.37;90.90
75022;SHT31;63583;49.976;20.182;2022-11-21T03:50:43;-1.54;90.71
75022;SHT31;63583;49.976;20.182;2022-11-21T03:53:09;-1.74;92.08
75022;SHT31;63583;49.976;20.182;2022-11-21T03:55:35;-1.84;93.70
75022;SHT31;63583;49.976;20.182;2022-11-21T03:58:01;-1.99;94.36
75022;SHT31;63583;49.976;20.182;2022-11-21T04:00:27;-1.96;94.15
75022;SHT31;63583;49.976;20.182;2022-11-21T04:02:52;-2.03;94.07
75022;SHT31;63583;49.976;20.182;2022-11-21T04:05:18;-2.21;94.50
75022;SHT31;63583;49.976;20.182;2022-11-21T04:07:44;-2.06;95.36
75022;SHT31;63583;49.976;20.182;2022-11-21T04:10:10;-2.05;95.61
75022;SHT31;63583;49.976;20.182;2022-11-21T04:12:36;-1.92;95.95
75022;SHT31;63583;49.976;20.182;2022-11-21T04:15:02;-1.92;96.50
75022;SHT31;63583;49.976;20.182;2022-11-21T04:17:28;-1.94;96.61
75022;SHT31;63583;49.976;20.182;2022-11-21T04:19:53;-1.72;96.56
75022;SHT31;63583;49.976;20.182;2022-11-21T04:22:19;-1.57;96.27
75022;SHT31;63583;49.976;20.182;2022-11-21T04:24:45;-1.56;95.96
75022;SHT31;63583;49.976;20.182;2022-11-21T04:27:11;-1.60;95.89
75022;SHT31;63583;49.976;20.182;2022-11-21T04:29:37;-1.60;96.05
75022;SHT31;63583;49.976;20.182;2022-11-21T04:32:03;-1.48;96.01
75022;SHT31;63583;49.976;20.182;2022-11-21T04:34:28;-1.50;95.80
75022;SHT31;63583;49.976;20.182;2022-11-21T04:36:54;-1.44;95.62
75022;SHT31;63583;49.976;20.182;2022-11-21T04:39:20;-1.64;95.57
75022;SHT31;63583;49.976;20.182;2022-11-21T04:41:46;-1.63;95.75
75022;SHT31;63583;49.976;20.182;2022-11-21T04:44:12;-1.56;95.34
75022;SHT31;63583;49.976;20.182;2022-11-21T04:46:38;-1.63;95.39
75022;SHT31;63583;49.976;20.182;2022-11-21T04:49:03;-1.53;95.53
75022;SHT31;63583;49.976;20.182;2022-11-21T04:51:29;-1.54;95.33
75022;SHT31;63583;49.976;20.182;2022-11-21T04:53:55;-1.47;95.37
75022;SHT31;63583;49.976;20.182;2022-11-21T04:56:21;-1.44;95.03
75022;SHT31;63583;49.976;20.182;2022-11-21T04:58:46;-1.40;94.78
75022;SHT31;63583;49.976;20.182;2022-11-21T05:01:12;-1.33;94.71
75022;SHT31;63583;49.976;20.182;2022-11-21T05:03:38;-1.53;94.91
75022;SHT31;63583;49.976;20.182;2022-11-21T05:06:04;-1.44;95.19
75022;SHT31;63583;49.976;20.182;2022-11-21T05:08:30;-1.51;95.21
75022;SHT31;63583;49.976;20.182;2022-11-21T05:10:55;-1.44;94.93
75022;SHT31;63583;49.976;20.182;2022-11-21T05:13:39;-1.64;95.07
75022;SHT31;63583;49.976;20.182;2022-11-21T05:16:05;-1.60;95.29
75022;SHT31;63583;49.976;20.182;2022-11-21T05:18:31;-1.61;95.17
75022;SHT31;63583;49.976;20.182;2022-11-21T05:20:57;-1.66;95.26
75022;SHT31;63583;49.976;20.182;2022-11-21T05:23:22;-1.70;95.56
75022;SHT31;63583;49.976;20.182;2022-11-21T05:25:48;-1.67;95.56
75022;SHT31;63583;49.976;20.182;2022-11-21T05:28:14;-1.63;95.57
75022;SHT31;63583;49.976;20.182;2022-11-21T05:30:40;-1.66;95.73
75022;SHT31;63583;49.976;20.182;2022-11-21T05:33:05;-1.70;96.07
75022;SHT31;63583;49.976;20.182;2022-11-21T05:35:31;-1.72;96.34
75022;SHT31;63583;49.976;20.182;2022-11-21T05:37:57;-1.64;96.18
75022;SHT31;63583;49.976;20.182;2022-11-21T05:40:24;-1.54;95.55
75022;SHT31;63583;49.976;20.182;2022-11-21T05:42:50;-1.61;95.15
75022;SHT31;63583;49.976;20.182;2022-11-21T05:45:34;-1.57;95.10
75022;SHT31;63583;49.976;20.182;2022-11-21T05:48:00;-1.66;94.95
75022;SHT31;63583;49.976;20.182;2022-11-21T05:50:26;-1.68;95.01
75022;SHT31;63583;49.976;20.182;2022-11-21T05:52:51;-1.70;95.02
75022;SHT31;63583;49.976;20.182;2022-11-21T05:55:17;-1.86;95.38
75022;SHT31;63583;49.976;20.182;2022-11-21T05:57:43;-1.95;95.53
75022;SHT31;63583;49.976;20.182;2022-11-21T06:00:09;-2.01;95.91
75022;SHT31;63583;49.976;20.182;2022-11-21T06:02:35;-2.07;96.42
75022;SHT31;63583;49.976;20.182;2022-11-21T06:05:19;-1.91;96.76
75022;SHT31;63583;49.976;20.182;2022-11-21T06:07:46;-1.84;96.10
75022;SHT31;63583;49.976;20.182;2022-11-21T06:10:12;-1.85;95.92
75022;SHT31;63583;49.976;20.182;2022-11-21T06:12:37;-1.91;95.73
75022;SHT31;63583;49.976;20.182;2022-11-21T06:15:03;-1.86;95.55
75022;SHT31;63583;49.976;20.182;2022-11-21T06:17:29;-1.88;95.30
75022;SHT31;63583;49.976;20.182;2022-11-21T06:19:55;-1.94;94.91
75022;SHT31;63583;49.976;20.182;2022-11-21T06:22:20;-1.91;94.70
75022;SHT31;63583;49.976;20.182;2022-11-21T06:24:46;-1.95;94.42
75022;SHT31;63583;49.976;20.182;2022-11-21T06:27:12;-1.96;94.19
75022;SHT31;63583;49.976;20.182;2022-11-21T06:29:38;-2.05;94.12
75022;SHT31;63583;49.976;20.182;2022-11-21T06:32:03;-2.19;94.45
75022;SHT31;63583;49.976;20.182;2022-11-21T06:34:29;-2.21;94.54
75022;SHT31;63583;49.976;20.182;2022-11-21T06:36:55;-2.30;94.66
75022;SHT31;63583;49.976;20.182;2022-11-21T06:39:21;-2.32;94.62
75022;SHT31;63583;49.976;20.182;2022-11-21T06:41:47;-2.52;94.81
75022;SHT31;63583;49.976;20.182;2022-11-21T06:44:19;-2.58;95.43
75022;SHT31;63583;49.976;20.182;2022-11-21T06:46:44;-2.60;95.61
75022;SHT31;63583;49.976;20.182;2022-11-21T06:49:10;-2.58;95.67
75022;SHT31;63583;49.976;20.182;2022-11-21T06:51:36;-2.40;95.19
75022;SHT31;63583;49.976;20.182;2022-11-21T06:54:02;-2.36;94.94
75022;SHT31;63583;49.976;20.182;2022-11-21T06:56:29;-2.33;95.23
75022;SHT31;63583;49.976;20.182;2022-11-21T06:58:56;-2.09;95.41
75022;SHT31;63583;49.976;20.182;2022-11-21T07:01:22;-1.98;95.45
75022;SHT31;63583;49.976;20.182;2022-11-21T07:03:48;-1.94;94.95
75022;SHT31;63583;49.976;20.182;2022-11-21T07:06:14;-1.91;95.48
75022;SHT31;63583;49.976;20.182;2022-11-21T07:08:40;-1.74;95.40
75022;SHT31;63583;49.976;20.182;2022-11-21T07:11:08;-1.77;95.07
75022;SHT31;63583;49.976;20.182;2022-11-21T07:13:35;-1.70;95.23
75022;SHT31;63583;49.976;20.182;2022-11-21T07:16:03;-1.63;95.17
75022;SHT31;63583;49.976;20.182;2022-11-21T07:18:29;-1.51;94.70
75022;SHT31;63583;49.976;20.182;2022-11-21T07:21:04;-1.46;94.59
75022;SHT31;63583;49.976;20.182;2022-11-21T07:23:31;-1.40;95.04
75022;SHT31;63583;49.976;20.182;2022-11-21T07:29:19;-1.32;94.80
75022;SHT31;63583;49.976;20.182;2022-11-21T07:31:44;-1.35;94.65
75022;SHT31;63583;49.976;20.182;2022-11-21T07:34:10;-1.29;94.50
75022;SHT31;63583;49.976;20.182;2022-11-21T07:36:36;-1.32;94.13
75022;SHT31;63583;49.976;20.182;2022-11-21T07:39:02;-1.33;94.27
75022;SHT31;63583;49.976;20.182;2022-11-21T07:41:28;-1.25;94.09
75022;SHT31;63583;49.976;20.182;2022-11-21T07:43:53;-0.95;93.41
75022;SHT31;63583;49.976;20.182;2022-11-21T07:46:19;-0.87;92.81
75022;SHT31;63583;49.976;20.182;2022-11-21T07:48:45;-0.93;92.61
75022;SHT31;63583;49.976;20.182;2022-11-21T07:51:11;-0.95;92.34
75022;SHT31;63583;49.976;20.182;2022-11-21T07:53:36;-0.89;92.62
75022;SHT31;63583;49.976;20.182;2022-11-21T07:56:02;-0.91;92.43
75022;SHT31;63583;49.976;20.182;2022-11-21T07:58:31;-0.92;92.16
75022;SHT31;63583;49.976;20.182;2022-11-21T08:00:56;-0.92;92.37
75022;SHT31;63583;49.976;20.182;2022-11-21T08:03:22;-0.74;91.92
75022;SHT31;63583;49.976;20.182;2022-11-21T08:05:49;-0.57;91.38
75022;SHT31;63583;49.976;20.182;2022-11-21T08:08:15;-0.57;91.59
75022;SHT31;63583;49.976;20.182;2022-11-21T08:10:43;-0.49;91.86
75022;SHT31;63583;49.976;20.182;2022-11-21T08:13:10;-0.44;92.44
75022;SHT31;63583;49.976;20.182;2022-11-21T08:15:37;-0.30;92.21
75022;SHT31;63583;49.976;20.182;2022-11-21T08:18:08;-0.19;92.24
75022;SHT31;63583;49.976;20.182;2022-11-21T08:20:34;-0.01;92.15
75022;SHT31;63583;49.976;20.182;2022-11-21T08:23:00;0.04;92.26
75022;SHT31;63583;49.976;20.182;2022-11-21T08:25:26;0.15;92.34
75022;SHT31;63583;49.976;20.182;2022-11-21T08:27:55;0.26;92.33
75022;SHT31;63583;49.976;20.182;2022-11-21T08:30:21;0.35;91.93
75022;SHT31;63583;49.976;20.182;2022-11-21T08:32:47;0.50;91.84
75022;SHT31;63583;49.976;20.182;2022-11-21T08:35:12;0.73;90.83
75022;SHT31;63583;49.976;20.182;2022-11-21T08:37:38;0.69;90.19
75022;SHT31;63583;49.976;20.182;2022-11-21T08:40:04;0.93;89.47
75022;SHT31;63583;49.976;20.182;2022-11-21T08:42:30;1.08;88.41
75022;SHT31;63583;49.976;20.182;2022-11-21T08:44:56;1.07;88.44
75022;SHT31;63583;49.976;20.182;2022-11-21T08:47:22;1.14;88.56
75022;SHT31;63583;49.976;20.182;2022-11-21T08:49:48;1.22;88.09
75022;SHT31;63583;49.976;20.182;2022-11-21T08:52:14;1.27;87.84
75022;SHT31;63583;49.976;20.182;2022-11-21T08:54:42;1.25;88.11
75022;SHT31;63583;49.976;20.182;2022-11-21T08:57:09;1.30;88.19
75022;SHT31;63583;49.976;20.182;2022-11-21T08:59:35;1.35;87.71
75022;SHT31;63583;49.976;20.182;2022-11-21T09:02:01;1.41;87.73
75022;SHT31;63583;49.976;20.182;2022-11-21T09:04:26;1.51;87.34
75022;SHT31;63583;49.976;20.182;2022-11-21T09:06:52;1.60;86.73
75022;SHT31;63583;49.976;20.182;2022-11-21T09:09:18;1.66;86.93
75022;SHT31;63583;49.976;20.182;2022-11-21T09:11:44;1.62;87.43
75022;SHT31;63583;49.976;20.182;2022-11-21T09:14:10;1.73;87.55
75022;SHT31;63583;49.976;20.182;2022-11-21T09:16:54;1.94;86.85
75022;SHT31;63583;49.976;20.182;2022-11-21T09:19:39;1.93;87.39
75022;SHT31;63583;49.976;20.182;2022-11-21T09:22:06;1.91;87.77
75022;SHT31;63583;49.976;20.182;2022-11-21T09:24:32;1.93;87.84
75022;SHT31;63583;49.976;20.182;2022-11-21T09:26:58;2.11;87.19
75022;SHT31;63583;49.976;20.182;2022-11-21T09:29:24;2.14;87.35
75022;SHT31;63583;49.976;20.182;2022-11-21T09:31:49;2.15;86.79
75022;SHT31;63583;49.976;20.182;2022-11-21T09:34:15;2.13;86.97
75022;SHT31;63583;49.976;20.182;2022-11-21T09:36:41;2.15;87.15
75022;SHT31;63583;49.976;20.182;2022-11-21T09:39:07;2.25;87.08
75022;SHT31;63583;49.976;20.182;2022-11-21T09:41:42;2.34;86.97
75022;SHT31;63583;49.976;20.182;2022-11-21T09:47:09;2.55;86.95
75022;SHT31;63583;49.976;20.182;2022-11-21T09:49:40;2.63;86.79
75022;SHT31;63583;49.976;20.182;2022-11-21T09:52:09;2.65;87.20
75022;SHT31;63583;49.976;20.182;2022-11-21T09:54:41;2.63;87.25
75022;SHT31;63583;49.976;20.182;2022-11-21T09:57:14;2.71;86.80
75022;SHT31;63583;49.976;20.182;2022-11-21T09:59:43;2.85;86.69
75022;SHT31;63583;49.976;20.182;2022-11-21T10:02:14;2.65;87.53
75022;SHT31;63583;49.976;20.182;2022-11-21T10:04:43;2.67;88.01
75022;SHT31;63583;49.976;20.182;2022-11-21T10:12:39;2.55;89.55
75022;SHT31;63583;49.976;20.182;2022-11-21T10:20:51;2.35;89.24
75022;SHT31;63583;49.976;20.182;2022-11-21T10:26:21;2.32;89.86
75022;SHT31;63583;49.976;20.182;2022-11-21T10:28:56;2.35;89.04
75022;SHT31;63583;49.976;20.182;2022-11-21T10:31:27;2.45;90.05
75022;SHT31;63583;49.976;20.182;2022-11-21T10:33:58;2.59;90.26
75022;SHT31;63583;49.976;20.182;2022-11-21T10:36:35;2.73;89.43
75022;SHT31;63583;49.976;20.182;2022-11-21T10:39:12;2.77;88.78
75022;SHT31;63583;49.976;20.182;2022-11-21T10:41:48;2.82;88.59
75022;SHT31;63583;49.976;20.182;2022-11-21T10:44:23;2.83;88.44
75022;SHT31;63583;49.976;20.182;2022-11-21T10:47:18;2.76;88.42
75022;SHT31;63583;49.976;20.182;2022-11-21T10:55:12;2.85;88.88
75022;SHT31;63583;49.976;20.182;2022-11-21T10:57:44;2.85;88.66
75022;SHT31;63583;49.976;20.182;2022-11-21T11:02:37;2.94;88.23
75022;SHT31;63583;49.976;20.182;2022-11-21T11:05:19;3.01;88.29
75022;SHT31;63583;49.976;20.182;2022-11-21T11:10:39;3.07;87.78
75022;SHT31;63583;49.976;20.182;2022-11-21T11:13:13;3.10;88.01
75022;SHT31;63583;49.976;20.182;2022-11-21T11:19:01;3.23;88.60
75022;SHT31;63583;49.976;20.182;2022-11-21T11:25:09;3.51;87.73
75022;SHT31;63583;49.976;20.182;2022-11-21T11:27:36;3.56;86.93
75022;SHT31;63583;49.976;20.182;2022-11-21T11:30:05;3.68;87.38
75022;SHT31;63583;49.976;20.182;2022-11-21T11:32:32;3.76;87.49
75022;SHT31;63583;49.976;20.182;2022-11-21T11:37:40;3.82;87.38
75022;SHT31;63583;49.976;20.182;2022-11-21T11:49:16;4.21;88.42
75022;SHT31;63583;49.976;20.182;2022-11-21T11:51:47;4.24;87.73
75022;SHT31;63583;49.976;20.182;2022-11-21T11:54:22;4.27;87.50
75022;SHT31;63583;49.976;20.182;2022-11-21T11:56:49;4.27;86.63
75022;SHT31;63583;49.976;20.182;2022-11-21T12:02:09;4.37;87.59
75022;SHT31;63583;49.976;20.182;2022-11-21T12:04:46;4.36;86.07
75022;SHT31;63583;49.976;20.182;2022-11-21T12:07:21;4.36;88.09
75022;SHT31;63583;49.976;20.182;2022-11-21T12:09:57;4.37;88.08
75022;SHT31;63583;49.976;20.182;2022-11-21T12:12:35;4.37;86.26
75022;SHT31;63583;49.976;20.182;2022-11-21T12:15:17;4.36;85.35
75022;SHT31;63583;49.976;20.182;2022-11-21T12:18:09;4.37;87.34
75022;SHT31;63583;49.976;20.182;2022-11-21T12:23:18;4.38;87.59
75022;SHT31;63583;49.976;20.182;2022-11-21T12:28:57;4.47;86.75
75022;SHT31;63583;49.976;20.182;2022-11-21T12:47:20;4.64;87.11
75022;SHT31;63583;49.976;20.182;2022-11-21T12:49:53;4.52;86.45
75022;SHT31;63583;49.976;20.182;2022-11-21T12:57:07;4.22;87.50
75022;SHT31;63583;49.976;20.182;2022-11-21T13:02:23;4.13;87.63
75022;SHT31;63583;49.976;20.182;2022-11-21T13:04:53;4.10;88.71
75022;SHT31;63583;49.976;20.182;2022-11-21T13:07:22;4.11;89.36
75022;SHT31;63583;49.976;20.182;2022-11-21T13:09:52;4.16;88.22
75022;SHT31;63583;49.976;20.182;2022-11-21T13:15:26;4.24;88.15
75022;SHT31;63583;49.976;20.182;2022-11-21T13:17:57;4.25;88.61
75022;SHT31;63583;49.976;20.182;2022-11-21T13:20:39;4.27;88.26
75022;SHT31;63583;49.976;20.182;2022-11-21T13:23:40;4.25;87.85
75022;SHT31;63583;49.976;20.182;2022-11-21T13:29:09;4.36;88.13
75022;SHT31;63583;49.976;20.182;2022-11-21T13:31:36;4.45;87.78
75022;SHT31;63583;49.976;20.182;2022-11-21T13:34:04;4.41;87.98
75022;SHT31;63583;49.976;20.182;2022-11-21T13:47:29;4.41;88.20
75022;SHT31;63583;49.976;20.182;2022-11-21T13:50:30;4.51;87.39
75022;SHT31;63583;49.976;20.182;2022-11-21T13:53:21;4.44;87.06
75022;SHT31;63583;49.976;20.182;2022-11-21T13:55:57;4.52;87.59
75022;SHT31;63583;49.976;20.182;2022-11-21T14:01:23;4.68;86.92
75022;SHT31;63583;49.976;20.182;2022-11-21T14:06:51;4.61;86.97
75022;SHT31;63583;49.976;20.182;2022-11-21T14:09:29;4.65;87.13
75022;SHT31;63583;49.976;20.182;2022-11-21T14:12:02;4.57;87.94
75022;SHT31;63583;49.976;20.182;2022-11-21T14:14:33;4.45;87.84
75022;SHT31;63583;49.976;20.182;2022-11-21T14:17:22;4.36;88.05
75022;SHT31;63583;49.976;20.182;2022-11-21T14:19:54;4.24;87.90
75022;SHT31;63583;49.976;20.182;2022-11-21T14:22:53;4.18;88.73
75022;SHT31;63583;49.976;20.182;2022-11-21T14:25:26;4.07;89.19
75022;SHT31;63583;49.976;20.182;2022-11-21T14:27:54;4.04;88.90
75022;SHT31;63583;49.976;20.182;2022-11-21T14:30:35;3.93;89.20
75022;SHT31;63583;49.976;20.182;2022-11-21T14:33:24;3.90;88.99
75022;SHT31;63583;49.976;20.182;2022-11-21T14:38:34;3.89;89.05
75022;SHT31;63583;49.976;20.182;2022-11-21T14:46:24;3.99;88.40
75022;SHT31;63583;49.976;20.182;2022-11-21T14:48:50;3.94;88.34
75022;SHT31;63583;49.976;20.182;2022-11-21T14:51:20;3.89;88.67
75022;SHT31;63583;49.976;20.182;2022-11-21T14:53:48;3.80;88.65
75022;SHT31;63583;49.976;20.182;2022-11-21T14:56:24;3.76;88.77
75022;SHT31;63583;49.976;20.182;2022-11-21T14:58:52;3.71;88.82
75022;SHT31;63583;49.976;20.182;2022-11-21T15:01:28;3.59;89.25
75022;SHT31;63583;49.976;20.182;2022-11-21T15:04:05;3.63;88.80
75022;SHT31;63583;49.976;20.182;2022-11-21T15:06:40;3.55;88.72
75022;SHT31;63583;49.976;20.182;2022-11-21T15:09:11;3.48;89.43
75022;SHT31;63583;49.976;20.182;2022-11-21T15:12:04;3.35;89.38
75022;SHT31;63583;49.976;20.182;2022-11-21T15:14:46;3.34;89.66
75022;SHT31;63583;49.976;20.182;2022-11-21T15:17:15;3.32;90.06
75022;SHT31;63583;49.976;20.182;2022-11-21T15:19:44;3.30;90.09
75022;SHT31;63583;49.976;20.182;2022-11-21T15:22:22;3.32;90.49
75022;SHT31;63583;49.976;20.182;2022-11-21T15:24:48;3.30;90.62
75022;SHT31;63583;49.976;20.182;2022-11-21T15:41:00;3.56;89.79
75022;SHT31;63583;49.976;20.182;2022-11-21T15:43:48;3.61;89.38
75022;SHT31;63583;49.976;20.182;2022-11-21T15:48:58;3.71;88.66
75022;SHT31;63583;49.976;20.182;2022-11-21T15:51:26;3.69;88.91
75022;SHT31;63583;49.976;20.182;2022-11-21T15:53:52;3.61;89.15
75022;SHT31;63583;49.976;20.182;2022-11-21T15:56:21;3.78;88.33
75022;SHT31;63583;49.976;20.182;2022-11-21T15:58:49;3.68;89.04
75022;SHT31;63583;49.976;20.182;2022-11-21T16:01:23;3.68;88.86
75022;SHT31;63583;49.976;20.182;2022-11-21T16:03:55;3.79;88.17
75022;SHT31;63583;49.976;20.182;2022-11-21T16:06:21;3.83;87.86
75022;SHT31;63583;49.976;20.182;2022-11-21T16:08:50;3.78;88.00
75022;SHT31;63583;49.976;20.182;2022-11-21T16:13:48;3.89;87.16
75022;SHT31;63583;49.976;20.182;2022-11-21T16:16:15;3.92;86.94
75022;SHT31;63583;49.976;20.182;2022-11-21T16:18:40;3.90;87.03
75022;SHT31;63583;49.976;20.182;2022-11-21T16:21:08;3.92;87.46
75022;SHT31;63583;49.976;20.182;2022-11-21T16:23:34;3.83;87.38
75022;SHT31;63583;49.976;20.182;2022-11-21T16:26:00;3.79;87.87
75022;SHT31;63583;49.976;20.182;2022-11-21T16:28:26;3.82;87.52
75022;SHT31;63583;49.976;20.182;2022-11-21T16:30:52;3.86;87.20
75022;SHT31;63583;49.976;20.182;2022-11-21T16:33:18;3.78;87.85
75022;SHT31;63583;49.976;20.182;2022-11-21T16:35:44;3.69;88.38
75022;SHT31;63583;49.976;20.182;2022-11-21T16:38:10;3.69;88.52
75022;SHT31;63583;49.976;20.182;2022-11-21T16:40:37;3.72;88.11
75022;SHT31;63583;49.976;20.182;2022-11-21T16:43:11;3.78;88.08
75022;SHT31;63583;49.976;20.182;2022-11-21T16:45:38;3.85;87.38
75022;SHT31;63583;49.976;20.182;2022-11-21T16:48:04;3.83;87.41
75022;SHT31;63583;49.976;20.182;2022-11-21T16:50:31;3.76;87.78
75022;SHT31;63583;49.976;20.182;2022-11-21T16:52:56;3.66;87.92
75022;SHT31;63583;49.976;20.182;2022-11-21T16:55:23;3.69;87.83
75022;SHT31;63583;49.976;20.182;2022-11-21T16:57:48;3.68;87.69
75022;SHT31;63583;49.976;20.182;2022-11-21T17:00:15;3.63;88.18
75022;SHT31;63583;49.976;20.182;2022-11-21T17:02:40;3.62;88.41
75022;SHT31;63583;49.976;20.182;2022-11-21T17:05:06;3.66;88.01
75022;SHT31;63583;49.976;20.182;2022-11-21T17:07:32;3.62;87.85
75022;SHT31;63583;49.976;20.182;2022-11-21T17:09:59;3.56;88.16
75022;SHT31;63583;49.976;20.182;2022-11-21T17:12:25;3.50;88.47
75022;SHT31;63583;49.976;20.182;2022-11-21T17:14:51;3.46;88.65
75022;SHT31;63583;49.976;20.182;2022-11-21T17:17:17;3.51;88.60
75022;SHT31;63583;49.976;20.182;2022-11-21T17:19:43;3.48;88.66
75022;SHT31;63583;49.976;20.182;2022-11-21T17:22:09;3.52;88.63
75022;SHT31;63583;49.976;20.182;2022-11-21T17:24:35;3.56;88.34
75022;SHT31;63583;49.976;20.182;2022-11-21T17:27:01;3.72;87.49
75022;SHT31;63583;49.976;20.182;2022-11-21T17:29:28;3.71;87.50
75022;SHT31;63583;49.976;20.182;2022-11-21T17:31:54;3.68;87.58
75022;SHT31;63583;49.976;20.182;2022-11-21T17:34:21;3.63;87.69
75022;SHT31;63583;49.976;20.182;2022-11-21T17:36:47;3.56;88.22
75022;SHT31;63583;49.976;20.182;2022-11-21T17:39:13;3.54;88.39
75022;SHT31;63583;49.976;20.182;2022-11-21T17:41:39;3.56;88.22
75022;SHT31;63583;49.976;20.182;2022-11-21T17:44:05;3.54;88.19
75022;SHT31;63583;49.976;20.182;2022-11-21T17:46:31;3.59;87.83
75022;SHT31;63583;49.976;20.182;2022-11-21T17:48:57;3.58;87.96
75022;SHT31;63583;49.976;20.182;2022-11-21T17:51:28;3.54;88.12